• Join FlightAware (Why Join?)
  • Login
  • US Flag 
10:33AM EDT


 

Airport Tracker/Info


-or-


 

Live Flight TrackerFlight Track Log ✈ CAL5392 ✈ 05-May-2012 ✈ PANC - KJFK

Flight Track Log - Related Links

Times and Time Zones

All times are in EDT time to prevent confusion due to time zone crossing. See the CAL5392 flight status page for this flight to view local times or setup timezone preferences in your user account.

Time Position Orientation Groundspeed Altitude Reporting Facility
EDT Latitude Longitude Course Direction KTS MPH feet Rate Location/Type
01:08AM 61.3000 -149.9667 100° East 270 311 6,200  Level Anchorage Center
01:13AM 61.2167 -149.0333 106° East 400 460 17,500 2,220 Climbing Anchorage Center
01:14AM 61.1833 -148.8000 106° East 420 483 19,800 2,400 Climbing Anchorage Center
01:15AM 61.1500 -148.5667 105° East 440 506 22,400 2,100 Climbing Anchorage Center
01:16AM 61.1167 -148.3167 104° East 450 518 24,100 1,800 Climbing Anchorage Center
01:17AM 61.0833 -148.0500 111° Southeast 460 529 26,100 1,800 Climbing Anchorage Center
01:18AM 61.0333 -147.7833 109° East 480 552 27,700 1,980 Climbing Anchorage Center
01:19AM 60.9833 -147.4833 105° East 480 552 30,100 1,980 Climbing Anchorage Center
01:20AM 60.9500 -147.2333 110° East 470 541 31,700 1,380 Climbing Anchorage Center
01:21AM 60.9000 -146.9500 106° East 470 541 33,000 600 Climbing Anchorage Center
01:22AM 60.8667 -146.7167 105° East 470 541 33,000  Level Anchorage Center
01:23AM 60.8333 -146.4667 111° Southeast 470 541 33,000  Level Anchorage Center
01:25AM 60.7833 -146.2000 104° East 470 541 33,000  Level Anchorage Center
01:26AM 60.7500 -145.9333 112° Southeast 480 552 33,000  Level Anchorage Center
01:27AM 60.7000 -145.6833 111° Southeast 470 541 33,000  Level Anchorage Center
01:28AM 60.6500 -145.4167 104° East 490 564 33,000  Level Anchorage Center
01:29AM 60.6167 -145.1500 112° Southeast 490 564 33,000  Level Anchorage Center
01:30AM 60.5667 -144.9000 112° Southeast 470 541 33,000  Level Anchorage Center
01:31AM 60.5167 -144.6500 104° East 480 552 33,000  Level Anchorage Center
01:32AM 60.4833 -144.3833 112° Southeast 480 552 33,000  Level Anchorage Center
01:33AM 60.4333 -144.1333 111° Southeast 490 564 33,000  Level Anchorage Center
01:34AM 60.3833 -143.8667 112° Southeast 480 552 33,000  Level Anchorage Center
01:35AM 60.3333 -143.6167 112° Southeast 480 552 33,000  Level Anchorage Center
01:36AM 60.2833 -143.3667 111° Southeast 480 552 33,000  Level Anchorage Center
01:37AM 60.2333 -143.1000 112° Southeast 480 552 33,000  Level Anchorage Center
01:38AM 60.1833 -142.8500 112° Southeast 480 552 33,000  Level Anchorage Center
01:39AM 60.1333 -142.6000 112° Southeast 480 552 33,000  Level Anchorage Center
01:40AM 60.0833 -142.3500 112° Southeast 480 552 33,000  Level Anchorage Center
01:41AM 60.0333 -142.1000 112° Southeast 490 564 33,000  Level Anchorage Center
01:42AM 59.9833 -141.8500 112° Southeast 480 552 33,000  Level Anchorage Center
01:43AM 59.9333 -141.6000 112° Southeast 480 552 33,000  Level Anchorage Center
01:44AM 59.8833 -141.3500 112° Southeast 480 552 33,000  Level Anchorage Center
01:45AM 59.8333 -141.1000 118° Southeast 490 564 33,000  Level Anchorage Center
01:46AM 59.7667 -140.8500 113° Southeast 480 552 33,000  Level Anchorage Center
01:47AM 59.7167 -140.6167 112° Southeast 480 552 33,000  Level Anchorage Center
01:48AM 59.6667 -140.3667 111° Southeast 480 552 33,000  Level Anchorage Center
01:49AM 59.6167 -140.1167 118° Southeast 490 564 33,000  Level Anchorage Center
01:50AM 59.5500 -139.8667 113° Southeast 490 564 33,000  Level Anchorage Center
01:51AM 59.5000 -139.6333 102° East 500 575 33,000  Level Anchorage Center
01:52AM 59.4667 -139.3333 104° East 500 575 33,000  Level Anchorage Center
01:53AM 59.4333 -139.0667 104° East 500 575 33,000  Level Anchorage Center
01:54AM 59.4000 -138.8000 104° East 500 575 33,000  Level Anchorage Center
01:55AM 59.3667 -138.5333 104° East 500 575 33,000  Level Anchorage Center
01:56AM 59.3333 -138.2667 104° East 500 575 33,000  Level Anchorage Center
01:57AM 59.3000 -138.0000 104° East 500 575 33,000  Level Anchorage Center
01:58AM 59.2667 -137.7333 104° East 510 587 33,000  Level Anchorage Center
01:59AM 59.2333 -137.4667 104° East 510 587 33,000  Level Anchorage Center
02:00AM 59.2000 -137.2000 104° East 510 587 33,000  Level Anchorage Center
02:01AM 59.1667 -136.9333 103° East 510 587 33,000  Level Anchorage Center
02:02AM 59.1333 -136.6500 104° East 520 598 33,000  Level Anchorage Center
02:03AM 59.1000 -136.3833 110° East 510 587 33,000  Level Anchorage Center
02:04AM 59.0500 -136.1167 104° East 510 587 33,000  Level Anchorage Center
02:05AM 59.0167 -135.8500 104° East 510 587 33,000 600 Level Anchorage Center
02:06AM 58.9833 -135.5833 110° East 520 598 34,300 960 Climbing Anchorage Center
02:07AM 58.9333 -135.3167 103° East 510 587 35,000 300 Climbing Anchorage Center
02:08AM 58.9000 -135.0333 103° East 530 610 35,000 -60 Level Anchorage Center
02:09AM 58.8667 -134.7667 110° East 520 598 34,900  Descending Anchorage Center
02:10AM 58.8167 -134.5000 103° East 520 598 35,000  Climbing Anchorage Center
02:11AM 58.7833 -134.2333 90° East 520 598 35,000  Level Anchorage Center
02:18AM 58.4730 -132.3923 91° East  Level FlightAware Approximate
02:19AM 58.4281 -132.1412 92° East  Level FlightAware Approximate
02:20AM 58.3828 -131.8908 92° East  Level FlightAware Approximate
02:21AM 58.3369 -131.6411 92° East  Level FlightAware Approximate
02:22AM 58.2901 -131.3923 92° East  Level FlightAware Approximate
02:23AM 58.2432 -131.1438 92° East  Level FlightAware Approximate
02:24AM 58.1959 -130.8960 92° East  Level FlightAware Approximate
02:25AM 58.1482 -130.6489 92° East  Level FlightAware Approximate
02:26AM 58.0999 -130.4024 93° East  Level FlightAware Approximate
02:27AM 58.0512 -130.1566 93° East  Level FlightAware Approximate
02:28AM 57.9999 -129.9131 93° East  Level FlightAware Approximate
02:29AM 57.9506 -129.6684 93° East  Level FlightAware Approximate
02:30AM 57.9008 -129.4244 93° East  Level FlightAware Approximate
02:31AM 57.8506 -129.1810 93° East  Level FlightAware Approximate
02:32AM 57.7999 -128.9383 93° East  Level FlightAware Approximate
02:33AM 57.7488 -128.6963 93° East  Level FlightAware Approximate
02:34AM 57.6972 -128.4550 94° East  Level FlightAware Approximate
02:35AM 57.6451 -128.2144 94° East  Level FlightAware Approximate
02:36AM 57.6025 -127.9745 94° East  Level FlightAware Approximate
02:37AM 57.5495 -127.7352 94° East  Level FlightAware Approximate
02:38AM 57.4961 -127.4966 94° East  Level FlightAware Approximate
02:39AM 57.4422 -127.2588 94° East  Level FlightAware Approximate
02:40AM 57.3878 -127.0216 94° East  Level FlightAware Approximate
02:41AM 57.3330 -126.7851 94° East  Level FlightAware Approximate
02:42AM 57.2778 -126.5493 95° East  Level FlightAware Approximate
02:43AM 57.2113 -126.3248 95° East  Level FlightAware Approximate
02:44AM 57.1556 -126.0902 95° East  Level FlightAware Approximate
02:45AM 57.0995 -125.8563 95° East  Level FlightAware Approximate
02:46AM 57.0429 -125.6231 95° East  Level FlightAware Approximate
02:47AM 56.9859 -125.3906 95° East  Level FlightAware Approximate
02:48AM 56.9285 -125.1588 95° East  Level FlightAware Approximate
02:49AM 56.8662 -124.9317 95° East  Level FlightAware Approximate
02:50AM 56.8063 -124.7029 95° East  Level FlightAware Approximate
02:51AM 56.7459 -124.4747 95° East  Level FlightAware Approximate
02:52AM 56.6852 -124.2473 96° East  Level FlightAware Approximate
02:53AM 56.6240 -124.0206 96° East  Level FlightAware Approximate
02:54AM 56.5624 -123.7947 96° East  Level FlightAware Approximate
02:55AM 56.5004 -123.5695 96° East  Level FlightAware Approximate
02:56AM 56.4380 -123.3450 96° East  Level FlightAware Approximate
02:57AM 56.3752 -123.1212 96° East  Level FlightAware Approximate
02:58AM 56.3120 -122.8982 96° East  Level FlightAware Approximate
02:59AM 56.2483 -122.6760 96° East  Level FlightAware Approximate
03:00AM 56.1843 -122.4545 96° East  Level FlightAware Approximate
03:01AM 56.1428 -122.2225 96° East  Level FlightAware Approximate
03:02AM 56.0774 -122.0029 97° East  Level FlightAware Approximate
03:03AM 56.0116 -121.7840 97° East  Level FlightAware Approximate
03:04AM 55.9455 -121.5659 97° East  Level FlightAware Approximate
03:05AM 55.8789 -121.3486 97° East  Level FlightAware Approximate
03:06AM 55.8120 -121.1319 97° East  Level FlightAware Approximate
03:07AM 55.7447 -120.9161 97° East  Level FlightAware Approximate
03:08AM 55.6770 -120.7010 97° East  Level FlightAware Approximate
03:09AM 55.6089 -120.4866 97° East  Level FlightAware Approximate
03:10AM 55.5405 -120.2729 97° East  Level FlightAware Approximate
03:11AM 55.4717 -120.0601 97° East  Level FlightAware Approximate
03:12AM 55.4310 -119.8262 97° East  Level FlightAware Approximate
03:13AM 55.3605 -119.6156 97° East  Level FlightAware Approximate
03:14AM 55.2897 -119.4058 97° East  Level FlightAware Approximate
03:15AM 55.2185 -119.1968 97° East  Level FlightAware Approximate
03:16AM 55.1543 -118.9812 98° East  Level FlightAware Approximate
03:17AM 55.1062 -118.7535 98° East  Level FlightAware Approximate
03:18AM 55.0576 -118.5263 98° East  Level FlightAware Approximate
03:19AM 55.0087 -118.2997 98° East  Level FlightAware Approximate
03:20AM 54.9593 -118.0736 98° East  Level FlightAware Approximate
03:21AM 54.9094 -117.8481 98° East  Level FlightAware Approximate
03:22AM 54.8592 -117.6231 98° East  Level FlightAware Approximate
03:23AM 54.8085 -117.3987 98° East  Level FlightAware Approximate
03:24AM 54.7575 -117.1749 98° East  Level FlightAware Approximate
03:25AM 54.7108 -116.9484 99° East  Level FlightAware Approximate
03:26AM 54.6638 -116.7225 99° East  Level FlightAware Approximate
03:27AM 54.6163 -116.4971 99° East  Level FlightAware Approximate
03:28AM 54.5684 -116.2722 99° East  Level FlightAware Approximate
03:29AM 54.5201 -116.0479 99° East  Level FlightAware Approximate
03:30AM 54.4714 -115.8241 99° East  Level FlightAware Approximate
03:31AM 54.4222 -115.6008 99° East  Level FlightAware Approximate
03:32AM 54.3727 -115.3781 99° East  Level FlightAware Approximate
03:33AM 54.3227 -115.1559 99° East  Level FlightAware Approximate
03:34AM 54.2723 -114.9342 100° East  Level FlightAware Approximate
03:35AM 54.2216 -114.7131 100° East  Level FlightAware Approximate
03:36AM 54.1739 -114.4902 100° East  Level FlightAware Approximate
03:37AM 54.1259 -114.2678 100° East  Level FlightAware Approximate
03:38AM 54.0774 -114.0460 100° East  Level FlightAware Approximate
03:39AM 54.0286 -113.8246 100° East  Level FlightAware Approximate
03:40AM 53.9793 -113.6038 100° East  Level FlightAware Approximate
03:41AM 53.9297 -113.3835 100° East  Level FlightAware Approximate
03:42AM 53.8796 -113.1638 101° East  Level FlightAware Approximate
03:43AM 53.8291 -112.9445 101° East  Level FlightAware Approximate
03:44AM 53.7783 -112.7258 101° East  Level FlightAware Approximate
03:45AM 53.7270 -112.5077 101° East  Level FlightAware Approximate
03:46AM 53.6753 -112.2900 101° East  Level FlightAware Approximate
03:47AM 53.6268 -112.0706 101° East  Level FlightAware Approximate
03:48AM 53.5779 -111.8516 101° East  Level FlightAware Approximate
03:49AM 53.5286 -111.6332 101° East  Level FlightAware Approximate
03:50AM 53.4790 -111.4153 101° East  Level FlightAware Approximate
03:51AM 53.4289 -111.1979 101° East  Level FlightAware Approximate
03:52AM 53.3784 -110.9809 102° East  Level FlightAware Approximate
03:53AM 53.3275 -110.7646 102° East  Level FlightAware Approximate
03:54AM 53.2776 -110.5478 102° East  Level FlightAware Approximate
03:55AM 53.2274 -110.3315 102° East  Level FlightAware Approximate
03:56AM 53.1767 -110.1157 102° East  Level FlightAware Approximate
03:57AM 53.1294 -109.8981 102° East  Level FlightAware Approximate
03:58AM 53.0816 -109.6810 102° East  Level FlightAware Approximate
03:59AM 53.0335 -109.4644 102° East  Level FlightAware Approximate
04:00AM 52.9849 -109.2483 102° East  Level FlightAware Approximate
04:01AM 52.9360 -109.0326 103° East  Level FlightAware Approximate
04:02AM 52.8867 -108.8174 103° East  Level FlightAware Approximate
04:03AM 52.8370 -108.6028 103° East  Level FlightAware Approximate
04:04AM 52.7869 -108.3886 103° East  Level FlightAware Approximate
04:05AM 52.7415 -108.1718 103° East  Level FlightAware Approximate
04:06AM 52.6957 -107.9554 103° East  Level FlightAware Approximate
04:07AM 52.6496 -107.7395 103° East  Level FlightAware Approximate
04:08AM 52.6030 -107.5241 103° East  Level FlightAware Approximate
04:09AM 52.5560 -107.3091 104° East  Level FlightAware Approximate
04:10AM 52.5087 -107.0946 104° East  Level FlightAware Approximate
04:11AM 52.4610 -106.8805 104° East  Level FlightAware Approximate
04:12AM 52.4129 -106.6669 104° East  Level FlightAware Approximate
04:13AM 52.3644 -106.4538 104° East  Level FlightAware Approximate
04:14AM 52.3155 -106.2412 104° East  Level FlightAware Approximate
04:15AM 52.2662 -106.0290 104° East  Level FlightAware Approximate
04:16AM 52.2166 -105.8173 104° East  Level FlightAware Approximate
04:17AM 52.1666 -105.6060 104° East  Level FlightAware Approximate
04:18AM 52.1203 -105.3928 105° East  Level FlightAware Approximate
04:19AM 52.0736 -105.1800 105° East  Level FlightAware Approximate
04:20AM 52.0266 -104.9676 105° East  Level FlightAware Approximate
04:21AM 51.9792 -104.7557 105° East  Level FlightAware Approximate
04:22AM 51.9314 -104.5442 105° East  Level FlightAware Approximate
04:23AM 51.8832 -104.3332 105° East  Level FlightAware Approximate
04:24AM 51.8346 -104.1227 105° East  Level FlightAware Approximate
04:25AM 51.7857 -103.9125 105° East  Level FlightAware Approximate
04:26AM 51.7364 -103.7029 106° East  Level FlightAware Approximate
04:27AM 51.6867 -103.4937 106° East  Level FlightAware Approximate
04:28AM 51.6416 -103.2820 106° East  Level FlightAware Approximate
04:29AM 51.5962 -103.0708 106° East  Level FlightAware Approximate
04:30AM 51.5504 -102.8599 106° East  Level FlightAware Approximate
04:31AM 51.5042 -102.6495 106° East  Level FlightAware Approximate
04:32AM 51.4576 -102.4396 106° East  Level FlightAware Approximate
04:33AM 51.4165 -102.2268 107° East  Level FlightAware Approximate
04:34AM 51.3751 -102.0145 107° East  Level FlightAware Approximate
04:35AM 51.3332 -101.8026 107° East  Level FlightAware Approximate
04:36AM 51.2910 -101.5910 107° East  Level FlightAware Approximate
04:37AM 51.2484 -101.3799 107° East  Level FlightAware Approximate
04:38AM 51.2054 -101.1691 107° East  Level FlightAware Approximate
04:39AM 51.1620 -100.9587 107° East  Level FlightAware Approximate
04:40AM 51.1183 -100.7487 108° East  Level FlightAware Approximate
04:41AM 51.0742 -100.5392 108° East  Level FlightAware Approximate
04:42AM 51.0297 -100.3300 108° East  Level FlightAware Approximate
04:43AM 50.9848 -100.1212 108° East  Level FlightAware Approximate
04:44AM 50.9396 -99.9128 108° East  Level FlightAware Approximate
04:45AM 50.8940 -99.7049 108° East  Level FlightAware Approximate
04:46AM 50.8480 -99.4973 109° East  Level FlightAware Approximate
04:47AM 50.8017 -99.2902 109° East  Level FlightAware Approximate
04:48AM 50.7550 -99.0834 109° East  Level FlightAware Approximate
04:49AM 50.7079 -98.8771 109° East  Level FlightAware Approximate
04:50AM 50.6605 -98.6712 109° East  Level FlightAware Approximate
04:51AM 50.6157 -98.4641 109° East  Level FlightAware Approximate
04:52AM 50.5705 -98.2573 109° East  Level FlightAware Approximate
04:53AM 50.5249 -98.0510 110° East  Level FlightAware Approximate
04:54AM 50.4790 -97.8450 110° East  Level FlightAware Approximate
04:55AM 50.4327 -97.6395 110° East  Level FlightAware Approximate
04:56AM 50.3860 -97.4343 110° East  Level FlightAware Approximate
04:57AM 50.3390 -97.2296 110° East  Level FlightAware Approximate
04:58AM 50.2917 -97.0252 110° East  Level FlightAware Approximate
04:59AM 50.2448 -96.8208 111° Southeast  Level FlightAware Approximate
05:00AM 50.1975 -96.6168 111° Southeast  Level FlightAware Approximate
05:01AM 50.1499 -96.4132 111° Southeast  Level FlightAware Approximate
05:02AM 50.1019 -96.2100 111° Southeast  Level FlightAware Approximate
05:03AM 50.0536 -96.0073 111° Southeast  Level FlightAware Approximate
05:04AM 50.0049 -95.8049 111° Southeast  Level FlightAware Approximate
05:05AM 49.9559 -95.6029 112° Southeast  Level FlightAware Approximate
05:06AM 49.9066 -95.4014 112° Southeast  Level FlightAware Approximate
05:07AM 49.8568 -95.2002 112° Southeast  Level FlightAware Approximate
05:08AM 49.8068 -94.9995 112° Southeast  Level FlightAware Approximate
05:09AM 49.7563 -94.7992 112° Southeast  Level FlightAware Approximate
05:10AM 49.7056 -94.5993 112° Southeast  Level FlightAware Approximate
05:11AM 49.6545 -94.3999 113° Southeast  Level FlightAware Approximate
05:12AM 49.6030 -94.2008 113° Southeast  Level FlightAware Approximate
05:13AM 49.5519 -94.0018 113° Southeast  Level FlightAware Approximate
05:14AM 49.5004 -93.8032 113° Southeast  Level FlightAware Approximate
05:15AM 49.3890 -93.7028 113° Southeast  Level FlightAware Approximate
05:16AM 49.3396 -93.5036 113° Southeast  Level FlightAware Approximate
05:17AM 49.2927 -93.3033 113° Southeast  Level FlightAware Approximate
05:18AM 49.2411 -93.1058 113° Southeast  Level FlightAware Approximate
05:19AM 49.1892 -92.9087 113° Southeast  Level FlightAware Approximate
05:20AM 49.1370 -92.7121 114° Southeast  Level FlightAware Approximate
05:21AM 49.0844 -92.5158 114° Southeast  Level FlightAware Approximate
05:22AM 49.0315 -92.3200 114° Southeast  Level FlightAware Approximate
05:23AM 48.9782 -92.1245 114° Southeast  Level FlightAware Approximate
05:24AM 48.9247 -91.9295 114° Southeast  Level FlightAware Approximate
05:25AM 48.8708 -91.7349 114° Southeast  Level FlightAware Approximate
05:26AM 48.8166 -91.5408 115° Southeast  Level FlightAware Approximate
05:27AM 48.7620 -91.3470 115° Southeast  Level FlightAware Approximate
05:28AM 48.7272 -91.1435 115° Southeast  Level FlightAware Approximate
05:29AM 48.6712 -90.9510 115° Southeast  Level FlightAware Approximate
05:30AM 48.6236 -90.7542 116° Southeast  Level FlightAware Approximate
05:31AM 48.5662 -90.5631 116° Southeast  Level FlightAware Approximate
05:32AM 48.5184 -90.3664 116° Southeast  Level FlightAware Approximate
05:33AM 48.4594 -90.1768 116° Southeast  Level FlightAware Approximate
05:34AM 48.4002 -89.9876 116° Southeast  Level FlightAware Approximate
05:35AM 48.3495 -89.7931 117° Southeast  Level FlightAware Approximate
05:36AM 48.2893 -89.6050 117° Southeast  Level FlightAware Approximate
05:37AM 48.2420 -89.4092 117° Southeast  Level FlightAware Approximate
05:38AM 48.1808 -89.2222 117° Southeast  Level FlightAware Approximate
05:39AM 48.1192 -89.0357 118° Southeast  Level FlightAware Approximate
05:40AM 48.0557 -88.8510 118° Southeast  Level FlightAware Approximate
05:41AM 47.9936 -88.6654 118° Southeast  Level FlightAware Approximate
05:42AM 47.9312 -88.4802 118° Southeast  Level FlightAware Approximate
05:43AM 47.8668 -88.2969 118° Southeast  Level FlightAware Approximate
05:44AM 47.8039 -88.1125 118° Southeast  Level FlightAware Approximate
05:45AM 47.7429 -87.9283 119° Southeast  Level FlightAware Approximate
05:46AM 47.6771 -87.7466 119° Southeast  Level FlightAware Approximate
05:47AM 47.6123 -87.5647 119° Southeast  Level FlightAware Approximate
05:48AM 47.5534 -87.3783 119° Southeast  Level FlightAware Approximate
05:49AM 47.4853 -87.1992 119° Southeast  Level FlightAware Approximate
05:50AM 47.4170 -87.0206 120° Southeast  Level FlightAware Approximate
05:51AM 47.3483 -86.8424 120° Southeast  Level FlightAware Approximate
05:52AM 47.2964 -86.6546 120° Southeast  Level FlightAware Approximate
05:53AM 47.2255 -86.4788 120° Southeast  Level FlightAware Approximate
05:54AM 47.1609 -86.2981 121° Southeast  Level FlightAware Approximate
05:55AM 47.0946 -86.1188 121° Southeast  Level FlightAware Approximate
05:56AM 47.0169 -85.9500 121° Southeast  Level FlightAware Approximate
05:57AM 46.9389 -85.7817 121° Southeast  Level FlightAware Approximate
05:58AM 46.8606 -85.6139 121° Southeast  Level FlightAware Approximate
05:59AM 46.7822 -85.4465 120° Southeast  Level FlightAware Approximate
06:00AM 46.7034 -85.2797 120° Southeast  Level FlightAware Approximate
06:01AM 46.6244 -85.1134 120° Southeast  Level FlightAware Approximate
06:02AM 46.5452 -84.9475 120° Southeast  Level FlightAware Approximate
06:03AM 46.4658 -84.7821 119° Southeast  Level FlightAware Approximate
06:03AM 45.8000 -83.1000 127° Southeast 570 656 37,000  Level Toronto Center
06:08AM 45.3333 -82.2167 125° Southeast 550 633 37,000  Level Toronto Center
06:09AM 45.2333 -82.0167 125° Southeast 550 633 37,000  Level Toronto Center
06:10AM 45.1667 -81.8833 130° Southeast 550 633 37,000  Level Toronto Center
06:11AM 45.0667 -81.7167 128° Southeast 550 633 37,000  Level Toronto Center
06:12AM 44.9667 -81.5333 128° Southeast 550 633 37,000  Level Toronto Center
06:13AM 44.8667 -81.3500 125° Southeast 550 633 37,000  Level Toronto Center
06:14AM 44.7833 -81.1833 135° Southeast 550 633 37,000  Level Toronto Center
06:15AM 44.6667 -81.0167 125° Southeast 550 633 37,000  Level Toronto Center
06:16AM 44.5833 -80.8500 130° Southeast 550 633 37,000  Level Toronto Center
06:17AM 44.4833 -80.6833 130° Southeast 550 633 37,000  Level Toronto Center
06:18AM 44.3833 -80.5167 136° Southeast 550 633 37,000  Level Toronto Center
06:19AM 44.2833 -80.3833 125° Southeast 550 633 37,000  Level Toronto Center
06:20AM 44.1833 -80.1833 128° Southeast 560 644 37,000  Level Toronto Center
06:21AM 44.1000 -80.0333 115° Southeast 550 633 37,000  Level Toronto Center
06:22AM 44.0333 -79.8333 115° Southeast 550 633 37,000  Level Toronto Center
06:23AM 43.9667 -79.6333 117° Southeast 550 633 37,000  Level Toronto Center
06:24AM 43.9000 -79.4500 117° Southeast 550 633 37,000  Level Toronto Center
06:25AM 43.8333 -79.2667 117° Southeast 550 633 37,000  Level Toronto Center
06:26AM 43.7667 -79.0833 117° Southeast 550 633 37,000  Level Toronto Center
06:27AM 43.7000 -78.9000 113° Southeast 550 633 37,000  Level Toronto Center
06:28AM 43.6333 -78.6833 122° Southeast 550 633 37,000  Level Toronto Center
06:29AM 43.5697 -78.5406 118° Southeast 550 633 37,000  Level Cleveland Center
06:30AM 43.4975 -78.3511 118° Southeast 550 633 37,000  Level Cleveland Center
06:31AM 43.4203 -78.1481 117° Southeast 550 633 37,000  Level Cleveland Center
06:32AM 43.3517 -77.9594 118° Southeast 545 627 37,000  Level Cleveland Center
06:33AM 43.2808 -77.7772 117° Southeast 540 621 37,000  Level Cleveland Center
06:34AM 43.2094 -77.5894 118° Southeast 546 628 37,000  Level Cleveland Center
06:35AM 43.1375 -77.4022 119° Southeast 546 628 37,000  Level Cleveland Center
06:37AM 42.9833 -77.0167 116° Southeast 550 633 37,000  Level Toronto Center
06:38AM 42.9167 -76.8333 120° Southeast 550 633 37,000  Level Toronto Center
06:39AM 42.8333 -76.6333 117° Southeast 550 633 37,000  Level Toronto Center
06:41AM 42.7614 -76.4450 118° Southeast 537 618 37,000  Level Boston Center
06:42AM 42.6903 -76.2653 120° Southeast 537 618 37,000  Level Boston Center
06:43AM 42.6150 -76.0856 119° Southeast 537 618 37,000  Level Boston Center
06:44AM 42.5414 -75.9064 119° Southeast 543 625 37,000  Level Boston Center
06:45AM 42.4675 -75.7250 119° Southeast 543 625 37,000  Level Boston Center
06:46AM 42.3992 -75.5611 119° Southeast 551 634 37,000  Level Boston Center
06:47AM 42.3247 -75.3803 118° Southeast 551 634 37,000 -600 Level Boston Center
06:48AM 42.2464 -75.1803 120° Southeast 551 634 35,800 -1,980 Descending Boston Center
06:49AM 42.1792 -75.0261 119° Southeast 539 620 33,100 -2,400 Descending Boston Center
06:50AM 42.1078 -74.8553 119° Southeast 539 620 31,000 -2,160 Descending Boston Center
06:51AM 42.0306 -74.6650 120° Southeast 539 620 28,800 -1,500 Descending Boston Center
06:52AM 41.9606 -74.5006 125° Southeast 523 602 28,000 -840 Descending Boston Center
06:53AM 41.8800 -74.3444 318° Northwest 516 594 27,200 4,140 Descending Boston Center
06:54AM 43.0500 -75.7833 251° West 390 449 40,000 4,380 Climbing Toronto Center
06:55AM 43.0167 -75.9167 260° West 390 449 40,000  Level Toronto Center
06:56AM 43.0000 -76.0500 139° Southeast 390 449 40,000 -8,940 Level Toronto Center
06:58AM 41.2819 -74.0786 186° South 436 502 19,900 -9,060 Descending New York Center
06:59AM 41.1669 -74.0950 188° South 424 488 19,700 -300 Descending New York Center
07:00AM 41.0500 -74.1167 180° South 407 468 19,400 -420 Descending New York TRACON
07:01AM 40.9500 -74.1167 159° South 400 460 19,000 -360 Descending New York TRACON
07:02AM 40.8500 -74.0667 119° Southeast 379 436 18,700 -900 Descending New York TRACON
07:03AM 40.8000 -73.9500 119° Southeast 372 428 17,300 -1,380 Descending New York TRACON
07:03AM 40.7500 -73.8333 119° Southeast 362 417 16,100 -1,260 Descending New York TRACON
07:04AM 40.7000 -73.7167 119° Southeast 404 465 15,000 -1,140 Descending New York TRACON